createdAt,value
2023-02-22T00:01:08.598Z,101445.37
2023-02-22T00:03:36.531Z,101437.75
2023-02-22T00:06:06.043Z,101433.86
2023-02-22T00:08:37.981Z,101439.19
2023-02-22T00:11:11.569Z,101440.07
2023-02-22T00:13:39.566Z,101443.51
2023-02-22T00:16:07.702Z,101446.61
2023-02-22T00:18:35.511Z,101446.05
2023-02-22T00:21:03.411Z,101451.41
2023-02-22T00:23:32.179Z,101455.66
2023-02-22T00:26:00.735Z,101455.14
2023-02-22T00:28:28.502Z,101452.30
2023-02-22T00:30:56.479Z,101448.08
2023-02-22T00:33:24.404Z,101445.53
2023-02-22T00:35:52.160Z,101448.93
2023-02-22T00:38:20.180Z,101447.27
2023-02-22T00:40:47.985Z,101443.34
2023-02-22T00:43:16.076Z,101442.75
2023-02-22T00:45:43.814Z,101444.19
2023-02-22T00:48:11.777Z,101444.19
2023-02-22T00:50:39.642Z,101444.48
2023-02-22T00:53:08.404Z,101447.88
2023-02-22T00:55:37.176Z,101435.46
2023-02-22T00:58:05.488Z,101445.07
2023-02-22T01:00:39.205Z,101441.70
2023-02-22T01:03:07.760Z,101439.45
2023-02-22T01:05:35.810Z,101438.08
2023-02-22T01:08:04.201Z,101433.53
2023-02-22T01:10:32.193Z,101433.27
2023-02-22T01:13:01.042Z,101438.93
2023-02-22T01:15:31.777Z,101438.37
2023-02-22T01:17:59.704Z,101434.16
2023-02-22T01:20:27.732Z,101435.27
2023-02-22T01:22:56.843Z,101427.65
2023-02-22T01:25:26.788Z,101427.68
2023-02-22T01:27:54.766Z,101436.41
2023-02-22T01:30:25.017Z,101435.33
2023-02-22T01:32:54.078Z,101426.27
2023-02-22T01:35:24.355Z,101423.20
2023-02-22T01:37:52.260Z,101425.20
2023-02-22T01:40:22.913Z,101424.34
2023-02-22T01:42:55.134Z,101427.48
2023-02-22T01:45:32.128Z,101430.82
2023-02-22T01:48:10.628Z,101423.76
2023-02-22T01:50:43.310Z,101421.23
2023-02-22T01:53:13.109Z,101411.66
2023-02-22T01:55:40.986Z,101421.53
2023-02-22T01:58:09.898Z,101414.47
2023-02-22T02:00:37.619Z,101409.66
2023-02-22T02:03:32.452Z,101416.43
2023-02-22T02:06:01.287Z,101407.15
2023-02-22T02:08:38.339Z,101403.78
2023-02-22T02:11:09.155Z,101408.55
2023-02-22T02:13:37.209Z,101416.50
2023-02-22T02:16:05.081Z,101402.96
2023-02-22T02:18:33.951Z,101410.84
2023-02-22T02:21:11.133Z,101403.52
2023-02-22T02:23:47.698Z,101401.55
2023-02-22T02:26:36.252Z,101400.70
2023-02-22T02:29:22.044Z,101393.64
2023-02-22T02:32:20.673Z,101386.88
2023-02-22T02:34:58.776Z,101386.32
2023-02-22T02:37:46.245Z,101390.24
2023-02-22T02:40:33.165Z,101378.44
2023-02-22T02:43:09.061Z,101384.65
2023-02-22T02:45:50.983Z,101380.40
2023-02-22T02:48:19.090Z,101381.84
2023-02-22T02:50:49.087Z,101383.24
2023-02-22T02:53:26.597Z,101370.27
2023-02-22T02:55:54.335Z,101366.05
2023-02-22T02:58:23.329Z,101375.07
2023-02-22T03:00:53.711Z,101375.66
2023-02-22T03:03:42.630Z,101370.56
2023-02-22T03:06:16.341Z,101370.85
2023-02-22T03:09:15.023Z,101372.52
2023-02-22T03:11:52.373Z,101367.19
2023-02-22T03:14:28.301Z,101367.45
2023-02-22T03:17:25.206Z,101366.08
2023-02-22T03:19:56.945Z,101364.09
2023-02-22T03:22:29.326Z,101366.93
2023-02-22T03:25:00.474Z,101364.67
2023-02-22T03:27:42.803Z,101357.61
2023-02-22T03:30:21.667Z,101363.82
2023-02-22T03:32:51.979Z,101355.68
2023-02-22T03:35:22.944Z,101352.28
2023-02-22T03:37:54.141Z,101356.23
2023-02-22T03:40:27.684Z,101352.28
2023-02-22T03:42:59.216Z,101351.70
2023-02-22T03:45:27.206Z,101354.24
2023-02-22T03:48:28.671Z,101352.02
2023-02-22T03:50:56.435Z,101351.43
2023-02-22T03:53:24.305Z,101350.91
2023-02-22T03:55:55.069Z,101352.02
2023-02-22T03:58:23.347Z,101349.17
2023-02-22T04:00:55.227Z,101351.98
2023-02-22T04:03:23.450Z,101354.27
2023-02-22T04:05:51.230Z,101355.13
2023-02-22T04:08:19.112Z,101354.27
2023-02-22T04:10:47.038Z,101352.58
2023-02-22T04:13:15.786Z,101353.98
2023-02-22T04:15:43.610Z,101355.39
2023-02-22T04:18:11.473Z,101354.27
2023-02-22T04:20:39.376Z,101352.28
2023-02-22T04:23:07.298Z,101355.98
2023-02-22T04:25:35.223Z,101352.61
2023-02-22T04:28:02.980Z,101358.79
2023-02-22T04:30:31.317Z,101357.38
2023-02-22T04:32:59.111Z,101345.84
2023-02-22T04:35:26.881Z,101351.46
2023-02-22T04:37:54.583Z,101357.12
2023-02-22T04:40:22.502Z,101357.12
2023-02-22T04:42:50.214Z,101365.30
2023-02-22T04:45:18.059Z,101361.08
2023-02-22T04:47:45.867Z,101355.13
2023-02-22T04:50:13.980Z,101356.53
2023-02-22T04:52:41.937Z,101358.49
2023-02-22T04:55:09.836Z,101355.42
2023-02-22T04:57:37.667Z,101351.76
2023-02-22T05:00:06.815Z,101347.80
2023-02-22T05:02:34.548Z,101342.99
2023-02-22T05:05:02.390Z,101342.99
2023-02-22T05:07:30.131Z,101342.18
2023-02-22T05:09:57.906Z,101342.18
2023-02-22T05:12:27.927Z,101343.88
2023-02-22T05:14:56.180Z,101337.93
2023-02-22T05:17:23.968Z,101342.44
2023-02-22T05:19:51.736Z,101343.32
2023-02-22T05:22:19.567Z,101346.40
2023-02-22T05:24:47.479Z,101346.95
2023-02-22T05:27:15.297Z,101351.20
2023-02-22T05:29:43.151Z,101344.99
2023-02-22T05:32:11.044Z,101348.39
2023-02-22T05:34:39.242Z,101345.84
2023-02-22T05:37:07.042Z,101347.80
2023-02-22T05:39:34.788Z,101343.32
2023-02-22T05:42:02.592Z,101342.99
2023-02-22T05:44:30.473Z,101342.18
2023-02-22T05:46:58.260Z,101336.55
2023-02-22T05:49:26.087Z,101338.48
2023-02-22T05:51:53.872Z,101337.38
2023-02-22T05:54:21.627Z,101332.86
2023-02-22T05:56:49.391Z,101338.22
2023-02-22T05:59:17.288Z,101342.99
2023-02-22T06:01:45.178Z,101343.88
2023-02-22T06:04:12.991Z,101337.08
2023-02-22T06:06:40.856Z,101332.27
2023-02-22T06:09:08.739Z,101340.48
2023-02-22T06:11:36.440Z,101339.34
2023-02-22T06:14:04.354Z,101337.08
2023-02-22T06:16:32.999Z,101338.19
2023-02-22T06:19:01.814Z,101342.73
2023-02-22T06:21:29.568Z,101346.66
2023-02-22T06:23:57.383Z,101339.04
2023-02-22T06:26:25.208Z,101342.44
2023-02-22T06:28:52.981Z,101348.65
2023-02-22T06:31:20.914Z,101347.51
2023-02-22T06:33:48.822Z,101350.58
2023-02-22T06:36:16.596Z,101362.71
2023-02-22T06:38:44.318Z,101355.09
2023-02-22T06:41:12.058Z,101355.09
2023-02-22T06:43:39.847Z,101363.56
2023-02-22T06:46:11.638Z,101360.16
2023-02-22T06:48:41.214Z,101362.16
2023-02-22T06:51:12.144Z,101372.84
2023-02-22T06:53:39.989Z,101370.30
2023-02-22T06:56:08.084Z,101369.16
2023-02-22T06:58:35.864Z,101368.86
2023-02-22T07:01:04.985Z,101370.00
2023-02-22T07:03:32.887Z,101361.80
2023-02-22T07:06:00.675Z,101367.16
2023-02-22T07:08:28.512Z,101368.23
2023-02-22T07:10:56.401Z,101368.50
2023-02-22T07:13:24.128Z,101361.17
2023-02-22T07:15:52.001Z,101367.68
2023-02-22T07:18:19.820Z,101373.01
2023-02-22T07:20:47.676Z,101372.16
2023-02-22T07:23:16.988Z,101375.23
2023-02-22T07:25:44.823Z,101376.34
2023-02-22T07:28:12.813Z,101378.83
2023-02-22T07:30:40.722Z,101371.73
2023-02-22T07:33:09.902Z,101372.95
2023-02-22T07:35:39.232Z,101370.62
2023-02-22T07:38:09.180Z,101372.00
2023-02-22T07:40:37.525Z,101373.17
2023-02-22T07:43:11.559Z,101373.44
2023-02-22T07:45:39.423Z,101368.07
2023-02-22T07:48:07.373Z,101369.52
2023-02-22T07:50:35.537Z,101373.73
2023-02-22T07:53:05.557Z,101370.30
2023-02-22T07:55:33.794Z,101366.90
2023-02-22T07:58:03.165Z,101367.12
2023-02-22T08:00:34.876Z,101357.22
2023-02-22T08:03:03.616Z,101359.73
2023-02-22T08:05:32.020Z,101363.40
2023-02-22T08:07:59.868Z,101356.30
2023-02-22T08:10:27.834Z,101366.73
2023-02-22T08:12:55.876Z,101356.76
2023-02-22T08:15:31.985Z,101358.95
2023-02-22T08:18:00.221Z,101350.45
2023-02-22T08:20:28.720Z,101357.16
2023-02-22T08:22:56.726Z,101355.95
2023-02-22T08:25:26.507Z,101352.77
2023-02-22T08:27:59.885Z,101356.08
2023-02-22T08:30:27.758Z,101356.30
2023-02-22T08:32:55.688Z,101352.87
2023-02-22T08:35:23.851Z,101348.00
2023-02-22T08:37:56.653Z,101344.20
2023-02-22T08:40:27.353Z,101347.51
2023-02-22T08:42:55.470Z,101357.41
2023-02-22T08:45:23.250Z,101353.88
2023-02-22T08:47:51.060Z,101358.59
2023-02-22T08:50:23.228Z,101343.72
2023-02-22T08:52:52.624Z,101351.23
2023-02-22T08:55:22.232Z,101344.60
2023-02-22T08:57:50.056Z,101340.48
2023-02-22T09:00:19.353Z,101335.41
2023-02-22T09:02:47.470Z,101340.94
2023-02-22T09:05:15.991Z,101338.35
2023-02-22T09:07:44.065Z,101338.87
2023-02-22T09:10:16.823Z,101335.25
2023-02-22T09:12:44.641Z,101338.74
2023-02-22T09:15:12.579Z,101339.40
2023-02-22T09:17:40.354Z,101336.26
2023-02-22T09:20:08.708Z,101336.06
2023-02-22T09:22:36.594Z,101331.55
2023-02-22T09:25:15.925Z,101341.59
2023-02-22T09:27:45.160Z,101335.45
2023-02-22T09:30:24.828Z,101334.07
2023-02-22T09:32:56.917Z,101333.32
2023-02-22T09:35:28.181Z,101328.48
2023-02-22T09:38:00.354Z,101327.10
2023-02-22T09:40:31.176Z,101340.05
2023-02-22T09:43:32.397Z,101329.49
2023-02-22T09:46:14.814Z,101327.70
2023-02-22T09:49:07.542Z,101321.71
2023-02-22T09:51:43.107Z,101323.73
2023-02-22T09:54:35.356Z,101318.96
2023-02-22T09:57:14.932Z,101322.20
2023-02-22T09:59:46.360Z,101321.16
2023-02-22T10:02:55.510Z,101313.57
2023-02-22T10:05:29.064Z,101321.65
2023-02-22T10:08:00.757Z,101314.02
2023-02-22T10:10:34.557Z,101308.05
2023-02-22T10:13:21.439Z,101310.79
2023-02-22T10:16:09.332Z,101302.98
2023-02-22T10:19:22.067Z,101303.14
2023-02-22T10:22:06.239Z,101301.05
2023-02-22T10:24:46.687Z,101289.05
2023-02-22T10:27:21.222Z,101300.06
2023-02-22T10:29:54.848Z,101302.59
2023-02-22T10:32:29.589Z,101292.19
2023-02-22T10:34:57.368Z,101288.27
2023-02-22T10:37:27.278Z,101287.41
2023-02-22T10:40:18.611Z,101286.98
2023-02-22T10:42:46.508Z,101279.30
2023-02-22T10:45:26.891Z,101274.46
2023-02-22T10:47:57.237Z,101278.20
2023-02-22T10:50:25.043Z,101271.00
2023-02-22T10:52:52.852Z,101267.01
2023-02-22T10:55:21.118Z,101264.85
2023-02-22T10:57:50.876Z,101262.50
2023-02-22T11:00:30.967Z,101256.12
2023-02-22T11:03:03.237Z,101260.30
2023-02-22T11:05:39.897Z,101253.57
2023-02-22T11:08:18.053Z,101260.83
2023-02-22T11:10:45.998Z,101250.70
2023-02-22T11:13:35.256Z,101252.13
2023-02-22T11:16:20.697Z,101241.84
2023-02-22T11:18:51.664Z,101234.22
2023-02-22T11:21:23.811Z,101237.16
2023-02-22T11:23:51.607Z,101235.91
2023-02-22T11:26:21.531Z,101224.57
2023-02-22T11:28:57.227Z,101220.32
2023-02-22T11:31:29.623Z,101222.74
2023-02-22T11:33:59.878Z,101214.83
2023-02-22T11:36:42.049Z,101212.41
2023-02-22T11:39:44.862Z,101204.76
2023-02-22T11:42:23.896Z,101206.49
2023-02-22T11:45:22.274Z,101195.80
2023-02-22T11:47:55.171Z,101203.58
2023-02-22T11:50:31.982Z,101195.47
2023-02-22T11:53:10.556Z,101184.48
2023-02-22T11:55:44.341Z,101183.27
2023-02-22T11:58:24.164Z,101183.41
2023-02-22T12:01:30.726Z,101184.12
2023-02-22T12:04:17.042Z,101176.87
2023-02-22T12:06:52.503Z,101169.37
2023-02-22T12:09:29.203Z,101162.74
2023-02-22T12:12:31.229Z,101165.48
2023-02-22T12:15:15.253Z,101165.95
2023-02-22T12:18:00.241Z,101159.27
2023-02-22T12:20:41.075Z,101154.96
2023-02-22T12:23:25.199Z,101160.59
2023-02-22T12:26:03.333Z,101158.55
2023-02-22T12:28:38.152Z,101154.14
2023-02-22T12:31:22.470Z,101153.81
2023-02-22T12:33:56.376Z,101155.98
2023-02-22T12:36:26.755Z,101142.77
2023-02-22T12:38:59.237Z,101144.20
2023-02-22T12:41:34.745Z,101141.78
2023-02-22T12:44:11.945Z,101137.73
2023-02-22T12:46:49.008Z,101137.53
2023-02-22T12:49:36.179Z,101140.02
2023-02-22T12:52:31.878Z,101136.29
2023-02-22T12:55:10.484Z,101139.13
2023-02-22T12:57:47.824Z,101132.40
2023-02-22T13:00:49.417Z,101125.30
2023-02-22T13:03:26.171Z,101131.19
2023-02-22T13:06:10.866Z,101119.78
2023-02-22T13:08:42.536Z,101130.86
2023-02-22T13:11:26.320Z,101129.88
2023-02-22T13:14:12.634Z,101133.48
2023-02-22T13:16:47.224Z,101134.30
2023-02-22T13:19:44.582Z,101119.13
2023-02-22T13:22:30.130Z,101118.41
2023-02-22T13:25:10.382Z,101118.41
2023-02-22T13:27:59.078Z,101117.39
2023-02-22T13:30:42.097Z,101110.36
2023-02-22T13:33:32.677Z,101109.38
2023-02-22T13:36:07.957Z,101104.77
2023-02-22T13:38:35.588Z,101107.13
2023-02-22T13:41:25.000Z,101099.48
2023-02-22T13:44:24.650Z,101097.77
2023-02-22T13:47:19.858Z,101097.48
2023-02-22T13:50:07.432Z,101097.91
2023-02-22T13:52:35.578Z,101093.33
2023-02-22T13:55:12.026Z,101087.84
2023-02-22T13:57:49.392Z,101093.13
2023-02-22T14:00:17.069Z,101083.59
2023-02-22T14:03:10.199Z,101082.34
2023-02-22T14:05:45.767Z,101087.64
2023-02-22T14:08:37.851Z,101079.20
2023-02-22T14:11:13.727Z,101075.45
2023-02-22T14:13:58.087Z,101072.89
2023-02-22T14:16:27.190Z,101067.46
2023-02-22T14:19:07.641Z,101070.77
2023-02-22T14:21:38.257Z,101068.25
2023-02-22T14:24:14.478Z,101060.77
2023-02-22T14:26:42.497Z,101066.71
2023-02-22T14:29:10.398Z,101063.02
2023-02-22T14:32:07.516Z,101066.26
2023-02-22T14:34:42.629Z,101064.30
2023-02-22T14:37:34.918Z,101056.64
2023-02-22T14:40:26.953Z,101066.35
2023-02-22T14:43:14.096Z,101060.20
2023-02-22T14:46:06.289Z,101060.56
2023-02-22T14:48:44.289Z,101066.32
2023-02-22T14:51:22.426Z,101065.96
2023-02-22T14:53:54.221Z,101060.27
2023-02-22T14:56:26.140Z,101053.60
2023-02-22T14:59:26.732Z,101055.47
2023-02-22T15:02:11.891Z,101052.98
2023-02-22T15:04:40.254Z,101056.71
2023-02-22T15:07:22.514Z,101062.46
2023-02-22T15:09:50.331Z,101063.73
2023-02-22T15:12:25.992Z,101060.47
2023-02-22T15:15:15.265Z,101063.28
2023-02-22T15:17:43.666Z,101059.48
2023-02-22T15:20:17.211Z,101054.48
2023-02-22T15:22:45.068Z,101057.27
2023-02-22T15:25:13.327Z,101053.93
2023-02-22T15:27:41.852Z,101070.08
2023-02-22T15:30:27.747Z,101057.69
2023-02-22T15:33:03.973Z,101053.50
2023-02-22T15:35:34.048Z,101067.23
2023-02-22T15:38:04.063Z,101066.62
2023-02-22T15:40:34.324Z,101068.87
2023-02-22T15:43:04.131Z,101067.50
2023-02-22T15:45:33.501Z,101073.32
2023-02-22T15:48:01.526Z,101076.03
2023-02-22T15:50:36.329Z,101080.80
2023-02-22T15:53:07.836Z,101072.01
2023-02-22T15:55:47.679Z,101071.09
2023-02-22T15:58:25.020Z,101076.16
2023-02-22T16:01:02.875Z,101079.70
2023-02-22T16:03:48.325Z,101077.08
2023-02-22T16:06:39.647Z,101076.39
2023-02-22T16:09:11.096Z,101082.31
2023-02-22T16:11:46.078Z,101090.32
2023-02-22T16:14:28.955Z,101091.34
2023-02-22T16:17:36.430Z,101094.24
2023-02-22T16:20:14.274Z,101092.84
2023-02-22T16:22:42.431Z,101097.97
2023-02-22T16:25:19.283Z,101101.57
2023-02-22T16:28:07.219Z,101095.23
2023-02-22T16:30:39.072Z,101102.38
2023-02-22T16:33:11.141Z,101103.01
2023-02-22T16:35:38.890Z,101111.02
2023-02-22T16:38:08.846Z,101106.24
2023-02-22T16:40:37.514Z,101108.17
2023-02-22T16:43:10.102Z,101108.76
2023-02-22T16:45:37.883Z,101118.80
2023-02-22T16:48:34.843Z,101113.80
2023-02-22T16:51:11.660Z,101115.07
2023-02-22T16:53:39.560Z,101123.12
2023-02-22T16:56:09.579Z,101123.31
2023-02-22T16:58:41.378Z,101122.23
2023-02-22T17:01:09.543Z,101129.39
2023-02-22T17:03:37.821Z,101132.14
2023-02-22T17:06:06.272Z,101141.29
2023-02-22T17:08:37.734Z,101138.64
2023-02-22T17:11:05.862Z,101143.42
2023-02-22T17:13:33.783Z,101144.86
2023-02-22T17:16:01.770Z,101139.82
2023-02-22T17:18:35.017Z,101146.27
2023-02-22T17:21:04.319Z,101144.10
2023-02-22T17:23:32.202Z,101149.20
2023-02-22T17:26:01.722Z,101149.56
2023-02-22T17:28:29.707Z,101153.98
2023-02-22T17:31:05.512Z,101153.49
2023-02-22T17:33:37.787Z,101161.92
2023-02-22T17:36:06.240Z,101166.70
2023-02-22T17:38:43.827Z,101159.96
2023-02-22T17:41:17.032Z,101159.47
2023-02-22T17:43:45.016Z,101169.05
2023-02-22T17:46:12.873Z,101169.74
2023-02-22T17:48:44.124Z,101162.45
2023-02-22T17:51:12.252Z,101168.73
2023-02-22T17:53:40.134Z,101172.09
2023-02-22T17:56:15.876Z,101168.98
2023-02-22T17:58:44.322Z,101173.11
2023-02-22T18:01:25.674Z,101178.05
2023-02-22T18:03:54.413Z,101181.94
2023-02-22T18:06:25.233Z,101182.88
2023-02-22T18:08:58.800Z,101185.43
2023-02-22T18:11:29.428Z,101179.94
2023-02-22T18:13:58.074Z,101188.38
2023-02-22T18:16:29.353Z,101180.30
2023-02-22T18:18:57.405Z,101185.89
2023-02-22T18:21:25.476Z,101184.91
2023-02-22T18:23:53.550Z,101179.52
2023-02-22T18:26:22.195Z,101193.67
2023-02-22T18:28:50.228Z,101185.47
2023-02-22T18:31:20.652Z,101189.84
2023-02-22T18:33:50.525Z,101188.51
2023-02-22T18:36:23.844Z,101187.03
2023-02-22T18:38:53.344Z,101182.49
2023-02-22T18:41:22.029Z,101182.82
2023-02-22T18:43:51.951Z,101189.39
2023-02-22T18:46:21.353Z,101181.51
2023-02-22T18:48:50.099Z,101185.04
2023-02-22T18:51:18.487Z,101184.55
2023-02-22T18:53:48.190Z,101181.21
2023-02-22T18:56:23.622Z,101175.85
2023-02-22T18:58:55.407Z,101180.56
2023-02-22T19:01:23.400Z,101185.43
2023-02-22T19:03:52.678Z,101186.12
2023-02-22T19:06:24.805Z,101183.11
2023-02-22T19:08:52.602Z,101186.28
2023-02-22T19:11:24.846Z,101192.23
2023-02-22T19:13:54.855Z,101187.66
2023-02-22T19:16:23.820Z,101186.35
2023-02-22T19:18:53.505Z,101183.66
2023-02-22T19:21:21.742Z,101181.51
2023-02-22T19:23:49.892Z,101185.04
2023-02-22T19:26:20.557Z,101187.76
2023-02-22T19:28:48.969Z,101180.70
2023-02-22T19:31:30.684Z,101181.02
2023-02-22T19:34:07.157Z,101184.71
2023-02-22T19:36:35.372Z,101176.84
2023-02-22T19:39:03.171Z,101186.94
2023-02-22T19:41:30.973Z,101186.74
2023-02-22T19:43:58.961Z,101184.95
2023-02-22T19:46:29.664Z,101182.72
2023-02-22T19:48:57.681Z,101182.88
2023-02-22T19:51:27.333Z,101186.77
2023-02-22T19:53:59.924Z,101194.82
2023-02-22T19:56:28.265Z,101204.89
2023-02-22T19:58:57.025Z,101197.01
2023-02-22T20:01:30.215Z,101195.66
2023-02-22T20:04:00.841Z,101198.05
2023-02-22T20:06:30.288Z,101202.73
2023-02-22T20:08:58.377Z,101207.60
2023-02-22T20:11:26.398Z,101206.09
2023-02-22T20:14:00.000Z,101202.76
2023-02-22T20:16:29.236Z,101204.76
2023-02-22T20:18:57.268Z,101202.92
2023-02-22T20:21:32.617Z,101214.86
2023-02-22T20:24:01.333Z,101210.64
2023-02-22T20:26:32.336Z,101213.81
2023-02-22T20:29:00.357Z,101207.63
2023-02-22T20:31:28.405Z,101211.82
2023-02-22T20:33:57.906Z,101216.20
2023-02-22T20:36:26.038Z,101213.65
2023-02-22T20:38:58.429Z,101213.32
2023-02-22T20:41:33.613Z,101217.02
2023-02-22T20:44:01.887Z,101205.45
2023-02-22T20:46:38.676Z,101217.87
2023-02-22T20:49:12.226Z,101219.73
2023-02-22T20:51:41.443Z,101216.20
2023-02-22T20:54:12.594Z,101217.02
2023-02-22T20:56:45.346Z,101217.87
2023-02-22T20:59:14.974Z,101214.34
